Time;durP1;ratioP1;P1;durP2;ratioP2;P2;SDS_P1;SDS_P2;PMS_P1;PMS_P2;Temp;Humidity;BMP_temperature;BMP_pressure;BME280_temperature;BME280_humidity;BME280_pressure;Samples;Min_cycle;Max_cycle;Signal;HPM_P1;HPM_P2
2021/12/10 00:00:59;;;;;;;0.70;0.70;;;;;;;2.53;89.58;97548.78;4975216;28;20026;-68
2021/12/10 00:03:35;;;;;;;0.50;0.50;;;;;;;2.48;89.57;97541.16;4975290;28;20033;-68
2021/12/10 00:06:08;;;;;;;0.50;0.50;;;;;;;2.42;87.28;97527.53;4976218;28;20031;-68
2021/12/10 00:08:37;;;;;;;0.60;0.60;;;;;;;2.38;86.73;97526.72;4975104;28;20042;-67
2021/12/10 00:11:08;;;;;;;0.55;0.55;;;;;;;2.42;86.39;97514.75;4974949;28;20492;-67
2021/12/10 00:13:35;;;;;;;0.55;0.55;;;;;;;2.41;90.10;97513.06;4975128;28;20056;-68
2021/12/10 00:16:01;;;;;;;0.90;0.90;;;;;;;2.19;90.70;97513.19;4975040;28;20027;-68
2021/12/10 00:18:33;;;;;;;0.85;0.85;;;;;;;2.24;89.87;97506.34;4975077;28;20539;-68
2021/12/10 00:21:01;;;;;;;0.50;0.50;;;;;;;2.16;91.83;97508.09;4974779;28;20033;-68
2021/12/10 00:23:29;;;;;;;2.38;0.68;;;;;;;2.04;92.76;97515.84;4974745;28;20031;-67
2021/12/10 00:25:55;;;;;;;0.57;0.57;;;;;;;1.91;91.80;97506.53;4974280;28;20031;-68
2021/12/10 00:28:32;;;;;;;0.50;0.50;;;;;;;1.81;93.07;97500.59;4974810;28;20111;-67
2021/12/10 00:31:32;;;;;;;1.05;1.00;;;;;;;1.85;91.74;97501.44;4974330;28;20062;-68
2021/12/10 00:34:01;;;;;;;0.60;0.60;;;;;;;2.00;88.08;97496.28;4974705;28;20022;-67
2021/12/10 00:36:27;;;;;;;0.60;0.60;;;;;;;1.93;85.85;97486.91;4975553;28;20395;-67
2021/12/10 00:38:52;;;;;;;0.60;0.60;;;;;;;1.92;87.70;97477.56;4974445;28;20031;-67
2021/12/10 00:41:19;;;;;;;0.93;0.93;;;;;;;1.62;90.78;97481.09;4974685;28;20053;-67
2021/12/10 00:43:45;;;;;;;0.60;0.60;;;;;;;1.64;89.79;97466.63;4974615;28;20114;-67
2021/12/10 00:46:11;;;;;;;0.50;0.50;;;;;;;1.53;89.96;97469.22;4974322;28;20030;-67
2021/12/10 00:48:37;;;;;;;0.73;0.73;;;;;;;1.53;89.89;97469.22;4974442;28;20057;-67
2021/12/10 00:51:05;;;;;;;0.80;0.80;;;;;;;1.62;88.99;97448.75;4974223;28;20031;-67
2021/12/10 00:53:31;;;;;;;1.95;1.60;;;;;;;1.53;90.32;97453.91;4974241;28;20034;-67
2021/12/10 00:55:56;;;;;;;0.57;0.57;;;;;;;1.73;84.49;97452.13;4974146;28;20472;-67
2021/12/10 00:58:24;;;;;;;0.82;0.82;;;;;;;2.06;82.83;97440.03;4974370;28;20051;-67
2021/12/10 05:15:13;;;;;;;0.93;0.93;;;;;;;-1.45;100.00;97014.78;6062182;23;19950;31
2021/12/10 05:17:39;;;;;;;0.90;0.90;;;;;;;-1.44;100.00;97010.53;4895793;29;20438;-69
2021/12/10 05:20:12;;;;;;;1.85;1.75;;;;;;;-1.45;100.00;97004.63;4897496;29;20036;-69
2021/12/10 05:22:42;;;;;;;3.78;1.67;;;;;;;-1.50;100.00;97000.34;4897574;29;20021;-69
2021/12/10 05:25:08;;;;;;;1.42;1.10;;;;;;;-1.52;100.00;96992.75;4897565;29;20497;-69
2021/12/10 05:27:34;;;;;;;0.93;0.93;;;;;;;-1.49;100.00;96990.22;4878834;29;20118;-69
2021/12/10 05:29:59;;;;;;;4.43;1.33;;;;;;;-1.50;100.00;96980.88;4879243;29;20055;-70
2021/12/10 05:32:25;;;;;;;0.90;0.90;;;;;;;-1.50;100.00;96975.81;4878205;29;20033;-70
2021/12/10 05:34:50;;;;;;;0.85;0.85;;;;;;;-1.52;100.00;96969.88;4878730;29;20479;-70
2021/12/10 05:37:16;;;;;;;1.15;1.15;;;;;;;-1.53;100.00;96970.75;4878193;29;20502;-69
2021/12/10 05:39:41;;;;;;;1.23;1.23;;;;;;;-1.51;100.00;96968.19;4878602;29;20040;-69
2021/12/10 05:42:07;;;;;;;0.70;0.70;;;;;;;-1.51;100.00;96963.13;4878534;29;20032;-68
2021/12/10 05:44:33;;;;;;;0.88;0.88;;;;;;;-1.50;100.00;96955.50;4878882;29;20061;-68
2021/12/10 05:46:59;;;;;;;0.70;0.70;;;;;;;-1.52;100.00;96957.19;4878391;29;20021;-68
2021/12/10 05:49:26;;;;;;;2.60;2.40;;;;;;;-1.52;100.00;96949.56;4878483;29;20033;-69
2021/12/10 05:51:51;;;;;;;0.90;0.90;;;;;;;-1.56;100.00;96951.25;4878422;29;20033;-68
2021/12/10 05:54:17;;;;;;;1.25;1.15;;;;;;;-1.57;100.00;96944.50;4878350;29;20132;-68
2021/12/10 05:56:43;;;;;;;0.68;0.68;;;;;;;-1.56;100.00;96950.41;4878275;29;20474;-69
2021/12/10 05:59:08;;;;;;;0.77;0.77;;;;;;;-1.60;100.00;96943.63;4878495;29;20080;-69
2021/12/10 06:01:34;;;;;;;0.60;0.60;;;;;;;-1.58;100.00;96942.81;4878478;29;20109;-69
2021/12/10 06:04:00;;;;;;;0.80;0.80;;;;;;;-1.57;100.00;96938.56;4878376;29;20033;-69
2021/12/10 06:06:29;;;;;;;1.30;1.20;;;;;;;-1.58;100.00;96939.44;4878051;29;20073;-70
2021/12/10 06:08:57;;;;;;;1.10;1.10;;;;;;;-1.57;100.00;96938.56;4878077;29;20036;-70
2021/12/10 06:11:25;;;;;;;1.33;1.33;;;;;;;-1.62;100.00;96943.66;4878263;29;20504;-70
2021/12/10 06:13:51;;;;;;;0.70;0.70;;;;;;;-1.63;100.00;96938.59;4878201;29;20033;-69
2021/12/10 06:16:17;;;;;;;1.23;1.23;;;;;;;-1.63;100.00;96938.59;4877717;29;20033;-69
2021/12/10 06:18:43;;;;;;;0.70;0.70;;;;;;;-1.56;100.00;96941.09;4878062;29;20036;-69
2021/12/10 06:21:09;;;;;;;0.70;0.70;;;;;;;-1.61;100.00;96936.88;4878125;29;20031;-69
2021/12/10 06:23:35;;;;;;;0.70;0.70;;;;;;;-1.59;100.00;96930.13;4878107;29;20491;-69
2021/12/10 06:26:03;;;;;;;11.70;2.17;;;;;;;-1.62;100.00;96936.03;4877860;29;20084;-69
2021/12/10 06:28:29;;;;;;;0.75;0.75;;;;;;;-1.61;100.00;96931.78;4878237;29;20024;-69
2021/12/10 06:30:55;;;;;;;0.82;0.82;;;;;;;-1.64;100.00;96924.19;4878008;29;20025;-69
2021/12/10 06:33:23;;;;;;;4.28;1.30;;;;;;;-1.62;100.00;96914.88;4878098;29;20047;-69
2021/12/10 06:35:51;;;;;;;1.45;1.45;;;;;;;-1.66;100.00;96908.09;4877665;29;20021;-69
2021/12/10 06:38:18;;;;;;;3.92;2.05;;;;;;;-1.71;100.00;96899.66;4877863;29;20459;-69
2021/12/10 06:40:44;;;;;;;2.00;1.75;;;;;;;-1.73;100.00;96886.13;4877933;29;20033;-69
2021/12/10 06:43:11;;;;;;;0.70;0.70;;;;;;;-1.70;100.00;96881.88;4878126;29;20116;-69
2021/12/10 06:45:38;;;;;;;3.80;2.00;;;;;;;-1.72;100.00;96878.50;4881066;29;20036;-69
2021/12/10 06:48:06;;;;;;;0.93;0.93;;;;;;;-1.69;100.00;96868.34;4881494;29;20406;-69
2021/12/10 06:50:36;;;;;;;0.75;0.75;;;;;;;-1.69;100.00;96862.41;4881282;29;20029;-69
2021/12/10 06:53:02;;;;;;;2.40;1.55;;;;;;;-1.67;100.00;96858.19;4881518;29;20052;-69
2021/12/10 06:55:29;;;;;;;1.85;1.77;;;;;;;-1.68;100.00;96859.03;4881274;29;20111;-69
2021/12/10 06:57:55;;;;;;;0.90;0.90;;;;;;;-1.66;100.00;96867.50;4881319;29;20033;-69
2021/12/10 07:00:36;;;;;;;1.58;1.23;;;;;;;-1.72;100.00;96863.25;4881290;29;20052;-69
2021/12/10 07:03:02;;;;;;;1.30;1.23;;;;;;;-1.72;100.00;96844.66;4881303;29;20398;-69
2021/12/10 07:05:27;;;;;;;0.80;0.80;;;;;;;-1.75;100.00;96847.19;4881148;29;20029;-69
2021/12/10 07:07:53;;;;;;;1.20;1.15;;;;;;;-1.79;100.00;96835.34;4880845;29;20025;-69
2021/12/10 07:10:19;;;;;;;1.33;1.33;;;;;;;-1.80;100.00;96834.50;4881317;29;20033;-69
2021/12/10 07:12:45;;;;;;;1.52;1.50;;;;;;;-1.81;100.00;96828.56;4881109;29;20029;-69
2021/12/10 07:15:13;;;;;;;0.90;0.90;;;;;;;-1.82;100.00;96831.97;4880994;29;20040;-69
2021/12/10 07:17:41;;;;;;;1.58;1.55;;;;;;;-1.83;100.00;96830.28;4880861;29;20052;-70
2021/12/10 07:20:08;;;;;;;6.60;3.17;;;;;;;-1.85;100.00;96824.34;4880980;29;20025;-69
2021/12/10 07:22:33;;;;;;;1.00;1.00;;;;;;;-1.78;100.00;96817.59;4881102;29;20033;-69
2021/12/10 07:24:58;;;;;;;1.55;1.45;;;;;;;-1.74;100.00;96803.19;4881068;29;20021;-69
2021/12/10 07:27:24;;;;;;;1.17;1.17;;;;;;;-1.71;100.00;96798.09;4880603;29;20025;-69
2021/12/10 07:29:49;;;;;;;1.38;1.38;;;;;;;-1.66;100.00;96774.41;4880931;29;20552;-69
2021/12/10 07:32:15;;;;;;;2.20;2.10;;;;;;;-1.62;100.00;96752.41;4880548;29;20479;-69
2021/12/10 07:34:40;;;;;;;2.72;2.53;;;;;;;-1.39;100.00;96745.53;4880797;29;20546;-69
2021/12/10 07:37:09;;;;;;;1.95;1.10;;;;;;;-1.05;98.03;96747.94;4880463;29;20023;-69
2021/12/10 07:39:35;;;;;;;2.28;2.17;;;;;;;-0.89;97.62;96746.97;4880753;29;20101;-69
2021/12/10 07:42:00;;;;;;;1.08;1.08;;;;;;;-0.99;97.38;96740.28;4880699;29;20494;-69
2021/12/10 07:44:26;;;;;;;2.35;2.25;;;;;;;-1.13;98.66;96737.78;4880595;29;20029;-69
2021/12/10 07:46:52;;;;;;;1.27;1.27;;;;;;;-0.94;98.05;96733.47;4880307;29;20067;-69
2021/12/10 07:49:26;;;;;;;3.92;2.35;;;;;;;-0.89;98.14;96731.72;4880684;29;20040;-69
2021/12/10 07:51:51;;;;;;;5.65;2.42;;;;;;;-0.80;97.58;96726.59;4880450;29;20029;-70
2021/12/10 07:54:17;;;;;;;2.65;1.42;;;;;;;-0.71;96.73;96720.59;4880483;29;20037;-70
2021/12/10 07:56:42;;;;;;;1.38;1.30;;;;;;;-0.59;95.98;96717.13;4879542;29;20029;-70
2021/12/10 07:59:08;;;;;;;4.22;1.02;;;;;;;-0.52;94.55;96716.25;4880276;29;20033;-70
2021/12/10 08:01:33;;;;;;;1.45;1.35;;;;;;;-0.45;93.76;96712.78;4880380;29;20479;-70
2021/12/10 08:04:01;;;;;;;0.95;0.95;;;;;;;-0.32;92.43;96724.53;4880222;29;20149;-70
2021/12/10 08:06:28;;;;;;;1.48;1.48;;;;;;;-0.22;93.08;96720.22;4879867;29;20021;-70
2021/12/10 08:08:54;;;;;;;0.98;0.85;;;;;;;-0.17;94.02;96723.56;4879853;29;20483;-70
2021/12/10 08:11:20;;;;;;;0.98;0.98;;;;;;;-0.05;91.77;96714.97;4880481;29;20044;-70
2021/12/10 08:13:46;;;;;;;2.00;1.90;;;;;;;-0.01;90.37;96717.47;4879980;29;20025;-70
2021/12/10 08:16:12;;;;;;;1.80;1.70;;;;;;;0.05;90.07;96719.13;4879952;29;20739;-70
2021/12/10 08:18:38;;;;;;;1.10;1.10;;;;;;;0.15;89.83;96710.53;4879888;29;20029;-70
2021/12/10 08:21:04;;;;;;;0.90;0.90;;;;;;;0.08;89.17;96715.69;4880105;29;20021;-70
2021/12/10 08:23:30;;;;;;;2.00;1.90;;;;;;;0.11;88.04;96723.31;4880196;29;20025;-70
2021/12/10 08:25:56;;;;;;;0.82;0.82;;;;;;;0.14;88.27;96731.75;4879647;29;20029;-70
2021/12/10 08:28:24;;;;;;;2.25;1.67;;;;;;;0.20;87.03;96718.13;4879777;29;20032;-70
2021/12/10 08:30:51;;;;;;;1.02;0.93;;;;;;;0.19;87.44;96709.66;4879607;29;20029;-70
2021/12/10 08:33:17;;;;;;;1.30;1.20;;;;;;;0.24;87.04;96710.44;4879692;29;20041;-70
2021/12/10 08:35:47;;;;;;;1.35;1.35;;;;;;;0.30;86.52;96708.69;4879328;29;20104;-70
2021/12/10 08:38:12;;;;;;;;;;;;;;;0.49;86.55;96705.06;4880070;29;20064;-70
2021/12/10 08:40:46;;;;;;;0.95;0.95;;;;;;;0.56;85.14;96711.75;4879546;29;19912;-70
2021/12/10 08:43:11;;;;;;;0.95;0.95;;;;;;;0.57;84.17;96713.44;4879604;29;20029;-70
2021/12/10 08:45:38;;;;;;;1.95;1.52;;;;;;;0.68;84.56;96715.88;4879322;29;20048;-70
2021/12/10 08:48:05;;;;;;;0.80;0.80;;;;;;;0.66;83.40;96720.13;4879332;29;20060;-70
2021/12/10 08:50:31;;;;;;;1.35;1.35;;;;;;;0.83;83.25;96719.94;4879341;29;20044;-70
2021/12/10 08:53:01;;;;;;;3.05;1.90;;;;;;;0.96;83.90;96721.44;4879348;29;20040;-71
2021/12/10 08:55:27;;;;;;;2.75;2.25;;;;;;;1.13;82.82;96726.31;4879599;29;20052;-70
2021/12/10 08:57:54;;;;;;;1.00;1.00;;;;;;;1.40;85.43;96728.50;4879181;29;20479;-70
2021/12/10 09:00:20;;;;;;;1.15;1.15;;;;;;;1.52;82.68;96722.34;4879255;29;20025;-70
2021/12/10 09:02:47;;;;;;;2.42;2.22;;;;;;;1.49;80.96;96728.31;4879401;29;20398;-70
2021/12/10 09:05:14;;;;;;;0.80;0.80;;;;;;;1.50;82.86;96724.09;4879259;29;20021;-70
2021/12/10 09:07:42;;;;;;;1.13;1.13;;;;;;;1.52;83.58;96727.44;4877865;29;20025;-69
2021/12/10 09:10:08;;;;;;;1.25;1.25;;;;;;;1.49;80.97;96719.81;4878991;29;20037;-69
2021/12/10 09:12:35;;;;;;;0.70;0.70;;;;;;;1.60;80.69;96715.41;4878900;29;20089;-70
2021/12/10 09:15:02;;;;;;;1.08;1.05;;;;;;;1.52;80.66;96704.47;4879260;29;20134;-69
2021/12/10 09:17:30;;;;;;;1.70;1.60;;;;;;;1.35;80.62;96714.94;4878557;29;20037;-69
2021/12/10 09:19:58;;;;;;;1.80;1.70;;;;;;;1.35;80.27;96714.09;4879106;29;20074;-70
2021/12/10 09:22:25;;;;;;;1.77;1.67;;;;;;;1.38;81.05;96719.16;4878852;29;20025;-69
2021/12/10 09:24:54;;;;;;;0.77;0.77;;;;;;;1.34;80.55;96710.69;4878812;29;20043;-69
2021/12/10 09:27:20;;;;;;;1.13;1.13;;;;;;;1.34;80.47;96702.22;4878739;29;20037;-70
2021/12/10 09:29:48;;;;;;;1.85;1.75;;;;;;;1.38;80.19;96701.31;4878751;29;20025;-69
2021/12/10 09:32:16;;;;;;;1.52;1.25;;;;;;;1.35;79.89;96699.63;4878688;29;20085;-69
2021/12/10 09:34:43;;;;;;;3.53;1.48;;;;;;;1.20;79.01;96700.69;4878697;29;20108;-69
2021/12/10 09:37:09;;;;;;;1.65;1.55;;;;;;;1.15;79.76;96694.81;4878177;29;20360;-69
2021/12/10 09:39:36;;;;;;;4.47;1.55;;;;;;;1.13;79.75;96683.81;4878470;29;20058;-69
2021/12/10 09:42:05;;;;;;;0.80;0.80;;;;;;;1.23;79.39;96680.25;4878519;29;20021;-69
2021/12/10 09:44:31;;;;;;;1.75;1.65;;;;;;;1.23;79.11;96689.63;4878818;29;20033;-69
2021/12/10 09:46:57;;;;;;;2.00;1.27;;;;;;;1.40;79.81;96674.91;4878302;29;20104;-69
2021/12/10 09:49:24;;;;;;;0.80;0.80;;;;;;;1.39;79.31;96672.38;4878462;29;20037;-69
2021/12/10 09:51:54;;;;;;;4.32;2.05;;;;;;;1.46;79.45;96666.31;4878356;29;20053;-69
2021/12/10 09:54:22;;;;;;;2.13;2.03;;;;;;;1.35;79.56;96657.97;4878450;29;20119;-69
2021/12/10 09:56:53;;;;;;;0.82;0.82;;;;;;;1.29;79.27;96654.66;4878205;29;20474;-69
2021/12/10 09:59:19;;;;;;;0.80;0.80;;;;;;;1.47;79.42;96650.13;4878418;29;20080;-69
2021/12/10 10:01:47;;;;;;;1.10;1.05;;;;;;;1.50;79.97;96642.44;4878376;29;20029;-68
2021/12/10 10:04:18;;;;;;;1.55;1.45;;;;;;;1.70;79.98;96640.38;4878241;29;20037;-69
2021/12/10 10:06:53;;;;;;;0.98;0.98;;;;;;;1.64;80.80;96632.81;4878088;29;20438;-69
2021/12/10 10:09:20;;;;;;;1.65;1.20;;;;;;;1.47;80.79;96633.09;4886769;29;20081;-69
2021/12/10 10:11:49;;;;;;;3.35;2.03;;;;;;;1.72;80.83;96630.13;4878166;29;20064;-70
2021/12/10 10:14:15;;;;;;;0.93;0.93;;;;;;;1.68;80.04;96628.50;4878186;29;20025;-69
2021/12/10 10:16:44;;;;;;;1.00;1.00;;;;;;;1.67;79.52;96630.22;4877774;29;20037;-69
2021/12/10 10:19:13;;;;;;;8.13;1.95;;;;;;;1.75;80.45;96627.53;4879542;29;21237;-70
2021/12/10 10:21:43;;;;;;;1.27;1.27;;;;;;;1.78;79.21;96620.63;4882170;29;20447;-69
2021/12/10 10:24:09;;;;;;;;;;;;;;;1.75;78.17;96618.16;4882494;29;20036;-69
2021/12/10 10:26:38;;;;;;;0.90;0.90;;;;;;;1.82;76.89;96618.88;4881768;29;19934;-69
2021/12/10 10:29:12;;;;;;;0.60;0.60;;;;;;;1.85;78.20;96598.41;4881778;29;20428;-69
2021/12/10 10:31:43;;;;;;;0.93;0.93;;;;;;;1.79;77.99;96601.91;4882039;29;20037;-70
2021/12/10 10:34:09;;;;;;;0.70;0.70;;;;;;;1.74;79.64;96600.28;4882020;29;20032;-69
2021/12/10 10:36:35;;;;;;;1.23;1.23;;;;;;;1.86;79.14;96589.03;4881398;29;20100;-69
2021/12/10 10:39:09;;;;;;;0.70;0.70;;;;;;;1.79;79.45;96584.06;4881567;29;20041;-69
2021/12/10 10:41:37;;;;;;;0.82;0.82;;;;;;;1.89;79.63;96576.22;4881637;29;20036;-69
2021/12/10 10:44:05;;;;;;;0.90;0.90;;;;;;;1.87;78.85;96580.50;4881704;29;20036;-69
2021/12/10 10:46:31;;;;;;;1.40;1.40;;;;;;;1.72;79.66;96572.25;4881325;29;20032;-69
2021/12/10 10:48:58;;;;;;;1.83;1.73;;;;;;;1.64;79.74;96569.00;4881476;29;20125;-69
2021/12/10 10:51:32;;;;;;;0.77;0.77;;;;;;;1.66;80.63;96562.16;4881378;29;20182;-69
2021/12/10 10:54:02;;;;;;;2.92;1.67;;;;;;;1.70;81.14;96553.59;4881529;29;20029;-69
2021/12/10 10:56:27;;;;;;;2.58;0.77;;;;;;;1.76;81.64;96545.81;4881174;29;20021;-69
2021/12/10 10:58:58;;;;;;;1.45;1.35;;;;;;;1.73;81.25;96540.75;4881330;29;20035;-70
2021/12/10 11:01:33;;;;;;;0.68;0.68;;;;;;;1.87;77.15;96532.00;4881502;29;20104;-69
2021/12/10 11:04:02;;;;;;;0.60;0.60;;;;;;;2.04;69.45;96517.19;4881544;29;20041;-69
2021/12/10 11:06:43;;;;;;;0.80;0.80;;;;;;;2.17;65.85;96518.56;4880976;29;20439;-69
2021/12/10 11:09:14;;;;;;;0.65;0.65;;;;;;;2.24;66.60;96506.53;4874053;29;20038;-69
2021/12/10 11:11:48;;;;;;;0.60;0.60;;;;;;;2.25;66.17;96503.94;4881199;29;20033;-69
2021/12/10 11:14:21;;;;;;;0.50;0.50;;;;;;;2.28;65.66;96509.00;4881417;29;20033;-69
2021/12/10 11:16:49;;;;;;;0.60;0.60;;;;;;;2.28;64.07;96506.44;4880770;29;20033;-70
2021/12/10 11:19:19;;;;;;;0.63;0.63;;;;;;;2.33;64.53;96508.06;4881004;29;20471;-69
2021/12/10 11:21:53;;;;;;;0.75;0.75;;;;;;;2.35;66.02;96511.41;4881127;29;20431;-70
2021/12/10 11:24:20;;;;;;;0.70;0.70;;;;;;;2.38;66.58;96516.44;4881170;29;20037;-70
2021/12/10 11:26:59;;;;;;;0.50;0.50;;;;;;;2.39;66.22;96518.13;4880720;29;20043;-69
2021/12/10 11:29:41;;;;;;;0.70;0.70;;;;;;;2.44;67.21;96522.25;4955309;23;20036;-67
2021/12/10 11:32:16;;;;;;;0.70;0.70;;;;;;;2.48;66.06;96523.88;4936306;29;20107;-67
2021/12/10 11:34:49;;;;;;;0.60;0.60;;;;;;;2.45;65.13;96525.66;4937433;29;20038;-67
2021/12/10 11:37:36;;;;;;;1.08;1.08;;;;;;;2.46;65.35;96525.59;4937044;29;20024;-67
2021/12/10 11:40:05;;;;;;;0.60;0.60;;;;;;;2.50;66.38;96528.94;4937060;29;20091;-68
2021/12/10 11:42:44;;;;;;;0.60;0.60;;;;;;;2.38;64.59;96537.72;4935977;29;20028;-67
2021/12/10 11:45:43;;;;;;;0.65;0.65;;;;;;;2.42;65.48;96536.78;4937361;29;20032;-67
2021/12/10 11:48:18;;;;;;;1.85;1.00;;;;;;;2.45;66.21;96535.88;4937093;29;20031;-68
2021/12/10 11:50:55;;;;;;;0.50;0.50;;;;;;;2.38;65.82;96539.44;4936976;29;20059;-67
2021/12/10 11:53:21;;;;;;;0.60;0.60;;;;;;;2.36;65.00;96538.63;4937003;29;20413;-68
2021/12/10 11:55:57;;;;;;;0.70;0.70;;;;;;;2.36;65.12;96538.63;4936870;29;20491;-68
2021/12/10 11:58:23;;;;;;;0.88;0.88;;;;;;;2.23;64.71;96538.91;4936969;29;20034;-68
2021/12/10 12:00:50;;;;;;;0.63;0.63;;;;;;;2.31;64.54;96546.38;4936793;29;20099;-68
2021/12/10 12:03:16;;;;;;;2.05;1.42;;;;;;;2.28;63.93;96552.41;4936829;29;20027;-67
2021/12/10 12:05:44;;;;;;;0.50;0.50;;;;;;;2.28;65.12;96557.53;4935370;29;20033;-67
2021/12/10 12:08:16;;;;;;;0.68;0.68;;;;;;;2.30;65.46;96558.31;4928929;29;20123;-69
2021/12/10 12:10:52;;;;;;;0.60;0.60;;;;;;;2.42;63.84;96561.47;4936823;29;20028;-67
2021/12/10 12:13:29;;;;;;;0.50;0.50;;;;;;;2.57;66.42;96558.63;4936603;29;20123;-68
2021/12/10 12:16:04;;;;;;;1.10;1.10;;;;;;;2.60;65.34;96566.19;4936801;29;20066;-68
2021/12/10 12:18:39;;;;;;;0.70;0.70;;;;;;;2.57;65.94;96568.84;4936853;29;20055;-70
2021/12/10 12:27:09;;;;;;;1.55;1.00;;;;;;;1.85;76.64;96561.81;4936406;29;19969;-70
2021/12/10 12:29:45;;;;;;;0.60;0.60;;;;;;;1.76;79.58;96556.03;4936215;29;20031;-69
2021/12/10 12:32:14;;;;;;;0.60;0.60;;;;;;;1.70;81.05;96553.59;4936339;29;20032;-70
2021/12/10 12:34:40;;;;;;;0.82;0.82;;;;;;;1.43;83.30;96562.59;4935085;29;20023;-67
2021/12/10 12:37:09;;;;;;;0.60;0.60;;;;;;;1.46;82.60;96561.69;4931454;29;20024;-68
2021/12/10 12:39:42;;;;;;;0.60;0.60;;;;;;;1.35;85.48;96561.03;4932228;29;20031;-67
2021/12/10 12:42:28;;;;;;;1.02;0.98;;;;;;;1.27;88.42;96554.38;4936412;29;20028;-68
2021/12/10 12:45:00;;;;;;;8.35;1.17;;;;;;;1.04;90.58;96548.81;4936385;29;20031;-68
2021/12/10 12:47:29;;;;;;;0.45;0.45;;;;;;;0.91;92.06;96552.41;4936067;29;20457;-68
2021/12/10 12:50:09;;;;;;;0.60;0.60;;;;;;;0.60;93.21;96550.34;4935849;29;20027;-69
2021/12/10 12:52:37;;;;;;;;;;;;;;;0.57;94.61;96541.91;4936517;29;20028;-69
2021/12/10 12:55:31;;;;;;;0.70;0.70;;;;;;;0.51;95.82;96547.94;4935926;29;19914;-69
2021/12/10 12:58:09;;;;;;;0.73;0.73;;;;;;;0.50;96.66;96553.91;4935896;29;20024;-69
2021/12/10 13:00:46;;;;;;;0.60;0.60;;;;;;;0.48;97.27;96555.59;4935831;29;20027;-71
2021/12/10 13:03:30;;;;;;;0.80;0.80;;;;;;;0.38;97.98;96544.72;4935935;29;20540;-68
2021/12/10 13:05:58;;;;;;;0.70;0.70;;;;;;;0.37;98.54;96544.75;4934102;29;20058;-69
2021/12/10 13:08:28;;;;;;;0.70;0.70;;;;;;;0.40;98.97;96542.16;4927864;29;20098;-69
2021/12/10 13:11:08;;;;;;;0.60;0.60;;;;;;;0.44;98.59;96538.72;4935534;29;20114;-70
2021/12/10 13:13:44;;;;;;;0.65;0.65;;;;;;;0.46;98.83;96544.63;4935740;29;20027;-68
2021/12/10 13:16:13;;;;;;;0.60;0.60;;;;;;;0.59;99.35;96538.47;4935411;29;20477;-69
2021/12/10 13:18:41;;;;;;;0.60;0.60;;;;;;;0.62;98.41;96537.56;4935508;29;20028;-70
2021/12/10 13:21:09;;;;;;;0.50;0.50;;;;;;;0.62;99.35;96538.41;4935480;29;20057;-71
2021/12/10 13:23:35;;;;;;;0.60;0.60;;;;;;;0.55;98.75;96541.94;4935624;29;20396;-68
2021/12/10 13:26:04;;;;;;;0.50;0.50;;;;;;;0.57;99.39;96532.53;4935361;29;20516;-70
2021/12/10 13:28:30;;;;;;;0.57;0.57;;;;;;;0.59;99.93;96528.28;4935309;29;20397;-68
2021/12/10 13:31:01;;;;;;;0.60;0.60;;;;;;;0.67;100.00;96531.53;4935218;29;20036;-70
2021/12/10 13:33:30;;;;;;;0.73;0.73;;;;;;;0.67;99.67;96536.63;4935353;29;20023;-68
2021/12/10 13:35:58;;;;;;;1.05;1.05;;;;;;;0.64;99.92;96536.69;4933409;29;20026;-71
2021/12/10 13:38:24;;;;;;;0.60;0.60;;;;;;;0.66;100.00;96534.97;4927281;29;20028;-69
2021/12/10 13:40:51;;;;;;;1.20;1.20;;;;;;;0.64;100.00;96536.69;4934978;29;20548;-69
2021/12/10 13:43:19;;;;;;;0.80;0.80;;;;;;;0.61;100.00;96530.81;4935064;29;20039;-71
2021/12/10 13:45:49;;;;;;;1.30;1.20;;;;;;;0.57;100.00;96540.19;4934977;29;20584;-68
2021/12/10 13:48:17;;;;;;;0.55;0.55;;;;;;;0.64;100.00;96534.16;4935179;29;20024;-68
2021/12/10 13:50:48;;;;;;;0.80;0.80;;;;;;;0.70;100.00;96531.50;4934959;29;20038;-69
2021/12/10 13:53:22;;;;;;;2.15;0.95;;;;;;;0.79;100.00;96529.69;4934731;29;20047;-68
2021/12/10 13:55:50;;;;;;;2.55;1.05;;;;;;;0.79;100.00;96539.88;4934664;29;20031;-68
2021/12/10 13:58:51;;;;;;;0.80;0.80;;;;;;;0.81;100.00;96543.22;4934891;29;20137;-68
2021/12/10 14:01:22;;;;;;;1.00;1.00;;;;;;;0.77;100.00;96538.22;4894800;29;20061;-68
2021/12/10 14:03:50;;;;;;;3.20;2.15;;;;;;;0.57;100.00;96545.28;4923643;29;20087;-68
2021/12/10 14:06:49;;;;;;;0.82;0.82;;;;;;;0.69;100.00;96542.56;4932850;29;20078;-68
2021/12/10 14:09:23;;;;;;;1.40;1.30;;;;;;;0.65;100.00;96543.47;4920748;29;20114;-69
2021/12/10 14:12:13;;;;;;;0.85;0.85;;;;;;;0.72;100.00;96555.25;4934730;29;20032;-68
2021/12/10 14:14:51;;;;;;;0.82;0.82;;;;;;;0.88;100.00;96555.03;4934958;29;20032;-69
2021/12/10 14:17:25;;;;;;;0.60;0.60;;;;;;;0.86;100.00;96564.38;4934609;29;20027;-69
2021/12/10 14:19:51;;;;;;;0.85;0.85;;;;;;;0.73;100.00;96567.16;4934667;29;20115;-68
2021/12/10 14:22:36;;;;;;;0.73;0.73;;;;;;;0.61;100.00;96571.56;4934748;29;20438;-68
2021/12/10 14:25:13;;;;;;;0.70;0.70;;;;;;;0.58;100.00;96576.69;4934611;29;20131;-69
2021/12/10 14:27:49;;;;;;;0.80;0.80;;;;;;;0.58;100.00;96584.34;4934537;29;20106;-69
2021/12/10 14:30:20;;;;;;;0.70;0.70;;;;;;;0.52;100.00;96577.63;4934461;29;20437;-69
2021/12/10 14:33:11;;;;;;;0.93;0.93;;;;;;;0.45;100.00;96581.97;4934559;29;20489;-68
2021/12/10 14:35:39;;;;;;;1.95;1.25;;;;;;;0.47;100.00;96581.94;4933819;29;20111;-68
2021/12/10 14:38:06;;;;;;;1.52;1.52;;;;;;;0.53;100.00;96584.41;4925879;29;20023;-69
2021/12/10 14:40:54;;;;;;;4.07;2.92;;;;;;;0.60;100.00;96592.81;4934337;29;20035;-69
2021/12/10 14:43:27;;;;;;;1.80;1.23;;;;;;;0.68;100.00;96596.94;4934541;29;20034;-68
2021/12/10 14:46:10;;;;;;;0.80;0.80;;;;;;;0.68;100.00;96594.41;4934255;29;20497;-69
2021/12/10 14:48:56;;;;;;;0.60;0.60;;;;;;;0.79;100.00;96601.03;4934361;29;20032;-69
2021/12/10 14:51:22;;;;;;;1.10;1.10;;;;;;;0.74;100.00;96596.84;4934186;29;20042;-68
2021/12/10 14:53:47;;;;;;;0.77;0.77;;;;;;;0.87;100.00;96599.22;4934349;29;20032;-69
2021/12/10 14:56:33;;;;;;;2.60;1.73;;;;;;;0.86;100.00;96607.72;4934070;29;20039;-68
2021/12/10 14:59:24;;;;;;;1.58;1.55;;;;;;;0.81;100.00;96614.59;4934331;29;20083;-68
2021/12/10 15:02:04;;;;;;;0.90;0.90;;;;;;;0.89;100.00;96615.34;4934420;29;20067;-69
2021/12/10 15:04:36;;;;;;;1.00;1.00;;;;;;;0.94;100.00;96611.84;4934628;29;20032;-69
2021/12/10 15:07:28;;;;;;;0.98;0.98;;;;;;;0.90;100.00;96620.41;4933678;29;20118;-69
2021/12/10 15:09:58;;;;;;;3.30;2.10;;;;;;;0.96;100.00;96619.47;4935936;29;20038;-69
2021/12/10 15:13:03;;;;;;;0.85;0.85;;;;;;;0.85;100.00;96626.44;4937782;29;20031;-69
2021/12/10 15:15:49;;;;;;;1.10;1.10;;;;;;;0.96;100.00;96627.13;4930488;29;20038;-69
2021/12/10 15:18:29;;;;;;;1.63;1.52;;;;;;;1.01;100.00;96622.78;4937766;29;20384;-69
2021/12/10 15:21:15;;;;;;;1.50;1.40;;;;;;;0.95;100.00;96630.53;4937584;29;20038;-69
2021/12/10 15:23:55;;;;;;;1.13;1.13;;;;;;;0.92;100.00;96639.09;4937765;29;20028;-69
2021/12/10 15:26:21;;;;;;;1.02;1.02;;;;;;;0.97;100.00;96636.47;4937431;29;20027;-69
2021/12/10 15:28:47;;;;;;;5.35;3.80;;;;;;;0.94;100.00;96641.59;4937385;29;20690;-69
2021/12/10 15:31:14;;;;;;;1.48;1.45;;;;;;;0.88;100.00;96646.81;4937433;29;20027;-69
2021/12/10 15:33:41;;;;;;;2.65;1.60;;;;;;;0.80;100.00;96653.69;4937316;29;20481;-70
2021/12/10 15:36:07;;;;;;;1.77;1.67;;;;;;;0.76;100.00;96658.81;4935685;29;20532;-71
2021/12/10 15:38:41;;;;;;;1.77;1.67;;;;;;;0.83;100.00;96661.31;4929365;29;20441;-71
2021/12/10 15:41:14;;;;;;;0.85;0.68;;;;;;;0.86;100.00;96662.09;4937381;29;20059;-70
2021/12/10 15:43:53;;;;;;;1.00;1.00;;;;;;;0.81;100.00;96665.56;4937361;29;20031;-70
2021/12/10 15:46:25;;;;;;;1.93;1.60;;;;;;;0.84;100.00;96660.44;4937098;29;20087;-71
2021/12/10 15:48:56;;;;;;;1.00;1.00;;;;;;;1.02;100.00;96665.28;4937019;29;20031;-71
2021/12/10 15:51:31;;;;;;;1.42;1.42;;;;;;;1.11;100.00;96670.22;4936972;29;20067;-71
2021/12/10 15:54:02;;;;;;;1.40;1.30;;;;;;;1.08;100.00;96665.19;4936962;29;20035;-70
2021/12/10 15:57:16;;;;;;;3.75;3.03;;;;;;;1.10;100.00;96678.75;4936759;29;20043;-71
2021/12/10 15:59:45;;;;;;;1.27;1.27;;;;;;;1.20;100.00;96675.19;4914265;29;20481;-70
2021/12/10 16:02:13;;;;;;;1.45;1.42;;;;;;;1.27;100.00;96687.00;4936845;29;20442;-71
2021/12/10 16:04:43;;;;;;;1.08;1.08;;;;;;;1.23;100.00;96687.06;4936719;29;20429;-71
2021/12/10 16:07:13;;;;;;;2.28;2.08;;;;;;;1.14;100.00;96689.75;4931502;29;20020;-71
2021/12/10 16:09:39;;;;;;;1.80;1.70;;;;;;;1.14;100.00;96693.16;4932848;29;20441;-70
2021/12/10 16:12:06;;;;;;;5.55;3.95;;;;;;;1.29;100.00;96698.00;4936776;29;20484;-70